createdAt,value
2022-10-22T00:00:38.766Z,13.00
2022-10-22T00:05:32.231Z,13.30
2022-10-22T00:07:58.968Z,11.10
2022-10-22T00:10:25.694Z,12.20
2022-10-22T00:12:52.582Z,10.90
2022-10-22T00:17:47.060Z,16.40
2022-10-22T00:20:14.151Z,13.70
2022-10-22T00:22:40.917Z,12.40
2022-10-22T00:27:34.496Z,12.80
2022-10-22T00:30:01.199Z,11.90
2022-10-22T00:32:27.913Z,12.90
2022-10-22T00:34:54.598Z,13.30
2022-10-22T00:39:48.286Z,11.70
2022-10-22T00:42:17.940Z,14.60
2022-10-22T00:45:05.052Z,12.30
2022-10-22T00:47:54.455Z,12.50
2022-10-22T00:50:26.441Z,12.80
2022-10-22T00:52:53.222Z,14.70
2022-10-22T00:55:20.163Z,13.40
2022-10-22T00:57:46.907Z,15.00
2022-10-22T01:00:14.092Z,17.00
2022-10-22T01:02:41.154Z,14.60
2022-10-22T01:05:08.523Z,13.70
2022-10-22T01:07:47.300Z,15.60
2022-10-22T01:10:23.215Z,13.10
2022-10-22T01:13:05.814Z,13.60
2022-10-22T01:15:57.018Z,11.20
2022-10-22T01:18:31.108Z,12.50
2022-10-22T01:21:24.424Z,11.70
2022-10-22T01:24:28.936Z,18.10
2022-10-22T01:27:16.638Z,16.30
2022-10-22T01:29:52.098Z,12.90
2022-10-22T01:32:21.014Z,14.70
2022-10-22T01:34:50.607Z,15.50
2022-10-22T01:37:17.359Z,18.40
2022-10-22T01:39:44.304Z,14.20
2022-10-22T01:42:12.752Z,13.70
2022-10-22T01:44:39.523Z,15.70
2022-10-22T01:47:28.056Z,13.70
2022-10-22T01:50:16.624Z,13.70
2022-10-22T01:53:08.881Z,16.10
2022-10-22T01:55:52.123Z,12.30
2022-10-22T01:58:18.824Z,16.50
2022-10-22T02:00:51.023Z,12.50
2022-10-22T02:03:23.670Z,15.20
2022-10-22T02:05:55.822Z,11.70
2022-10-22T02:08:28.669Z,14.30
2022-10-22T02:10:55.559Z,16.30
2022-10-22T02:13:37.642Z,12.40
2022-10-22T02:16:05.356Z,12.00
2022-10-22T02:18:35.262Z,15.70
2022-10-22T02:21:04.370Z,15.00
2022-10-22T02:26:03.829Z,16.00
2022-10-22T02:28:38.058Z,12.30
2022-10-22T02:31:14.879Z,14.40
2022-10-22T02:33:44.548Z,15.80
2022-10-22T02:36:11.431Z,15.00
2022-10-22T02:41:04.820Z,10.60
2022-10-22T02:43:31.551Z,13.50
2022-10-22T02:45:58.286Z,12.80
2022-10-22T02:48:25.103Z,11.30
2022-10-22T02:53:18.563Z,13.00
2022-10-22T02:55:45.318Z,15.90
2022-10-22T03:00:40.783Z,12.70
2022-10-22T03:03:07.710Z,14.00
2022-10-22T03:05:34.549Z,15.80
2022-10-22T03:10:28.028Z,14.90
2022-10-22T03:15:21.538Z,15.80
2022-10-22T03:17:48.400Z,22.10
2022-10-22T03:20:15.165Z,17.90
2022-10-22T03:22:42.239Z,20.30
2022-10-22T03:25:11.077Z,15.20
2022-10-22T03:27:38.024Z,13.10
2022-10-22T03:30:05.846Z,14.20
2022-10-22T03:32:32.581Z,14.00
2022-10-22T03:37:27.143Z,14.90
2022-10-22T03:42:21.238Z,12.80
2022-10-22T03:44:47.952Z,13.10
2022-10-22T03:47:14.755Z,13.50
2022-10-22T03:49:41.477Z,12.70
2022-10-22T03:52:14.019Z,21.40
2022-10-22T03:54:41.084Z,20.10
2022-10-22T03:57:08.057Z,16.10
2022-10-22T03:59:36.512Z,14.70
2022-10-22T04:02:03.380Z,18.30
2022-10-22T04:06:56.995Z,14.40
2022-10-22T04:11:50.449Z,18.10
2022-10-22T04:14:17.387Z,13.30
2022-10-22T04:16:44.091Z,13.10
2022-10-22T04:19:10.827Z,16.50
2022-10-22T04:21:37.599Z,16.30
2022-10-22T04:26:31.324Z,14.20
2022-10-22T04:28:58.125Z,15.90
2022-10-22T04:33:56.282Z,14.80
2022-10-22T04:36:23.257Z,15.70
2022-10-22T04:38:58.240Z,25.30
2022-10-22T04:41:30.235Z,17.50
2022-10-22T04:43:57.230Z,13.10
2022-10-22T04:46:24.205Z,15.00
2022-10-22T04:51:19.394Z,13.60
2022-10-22T04:53:46.329Z,13.40
2022-10-22T04:56:16.357Z,20.20
2022-10-22T04:58:43.595Z,11.70
2022-10-22T05:01:15.432Z,14.10
2022-10-22T05:03:42.411Z,12.30
2022-10-22T05:06:09.349Z,13.20
2022-10-22T05:08:36.288Z,16.40
2022-10-22T05:11:11.412Z,12.80
2022-10-22T05:13:38.358Z,14.10
2022-10-22T05:18:34.694Z,16.60
2022-10-22T05:21:01.430Z,11.40
2022-10-22T05:23:28.761Z,20.00
2022-10-22T05:25:55.471Z,12.30
2022-10-22T05:28:22.324Z,13.00
2022-10-22T05:33:24.124Z,12.00
2022-10-22T05:35:51.364Z,12.00
2022-10-22T05:38:18.163Z,14.20
2022-10-22T05:43:11.739Z,15.60
2022-10-22T05:48:06.830Z,25.10
2022-10-22T05:50:36.705Z,14.70
2022-10-22T05:53:04.179Z,18.20
2022-10-22T05:55:31.070Z,14.00
2022-10-22T06:00:24.423Z,11.70
2022-10-22T06:02:51.301Z,16.30
2022-10-22T06:07:44.866Z,11.30
2022-10-22T06:10:14.568Z,14.70
2022-10-22T06:12:41.493Z,14.40
2022-10-22T06:15:10.334Z,16.60
2022-10-22T06:17:37.085Z,16.60
2022-10-22T06:22:31.774Z,14.60
2022-10-22T06:24:58.518Z,12.00
2022-10-22T06:27:25.258Z,14.50
2022-10-22T06:29:51.983Z,14.70
2022-10-22T06:32:18.725Z,17.50
2022-10-22T06:34:46.235Z,33.80
2022-10-22T06:37:15.336Z,23.20
2022-10-22T06:39:42.073Z,27.60
2022-10-22T06:42:08.813Z,18.10
2022-10-22T06:47:02.951Z,12.90
2022-10-22T06:51:56.358Z,14.00
2022-10-22T06:54:23.111Z,16.10
2022-10-22T06:56:49.892Z,13.00
2022-10-22T07:01:43.418Z,12.90
2022-10-22T07:06:37.037Z,13.20
2022-10-22T07:11:41.916Z,13.90
2022-10-22T07:14:08.870Z,15.80
2022-10-22T07:19:02.572Z,13.70
2022-10-22T07:21:29.718Z,14.60
2022-10-22T07:23:56.743Z,12.50
2022-10-22T07:26:25.396Z,17.00
2022-10-22T07:28:52.135Z,14.50
2022-10-22T07:31:18.930Z,11.40
2022-10-22T07:36:17.537Z,13.40
2022-10-22T07:38:48.495Z,16.50
2022-10-22T07:41:16.027Z,10.40
2022-10-22T07:43:42.907Z,14.70
2022-10-22T07:48:36.750Z,10.80
2022-10-22T07:51:03.763Z,13.10
2022-10-22T07:53:30.674Z,15.80
2022-10-22T07:55:58.216Z,16.40
2022-10-22T07:58:25.069Z,26.30
2022-10-22T08:03:18.562Z,14.70
2022-10-22T08:08:15.405Z,12.20
2022-10-22T08:10:42.853Z,20.40
2022-10-22T08:13:09.611Z,18.00
2022-10-22T08:15:36.460Z,13.90
2022-10-22T08:18:03.497Z,18.30
2022-10-22T08:20:30.247Z,13.40
2022-10-22T08:22:57.011Z,12.00
2022-10-22T08:27:50.431Z,9.70
2022-10-22T08:32:44.135Z,10.40
2022-10-22T08:37:43.725Z,10.00
2022-10-22T08:40:12.324Z,10.30
2022-10-22T08:42:44.003Z,9.50
2022-10-22T08:45:20.096Z,12.90
2022-10-22T08:48:05.396Z,10.10
2022-10-22T08:50:46.324Z,9.80
2022-10-22T08:53:25.854Z,21.30
2022-10-22T08:55:53.173Z,19.10
2022-10-22T08:58:22.289Z,11.20
2022-10-22T09:00:52.079Z,11.30
2022-10-22T09:03:46.746Z,13.80
2022-10-22T09:06:22.681Z,12.80
2022-10-22T09:08:49.546Z,11.20
2022-10-22T09:13:44.362Z,9.80
2022-10-22T09:16:19.454Z,11.00
2022-10-22T09:18:56.023Z,10.90
2022-10-22T09:21:53.051Z,19.70
2022-10-22T09:24:22.380Z,14.60
2022-10-22T09:26:49.162Z,11.30
2022-10-22T09:29:19.320Z,11.90
2022-10-22T09:31:46.336Z,12.60
2022-10-22T09:34:19.627Z,11.70
2022-10-22T09:36:46.419Z,11.70
2022-10-22T09:42:00.234Z,69.80
2022-10-22T09:46:53.699Z,16.50
2022-10-22T09:50:41.633Z,13.90
2022-10-22T09:53:23.153Z,15.30
2022-10-22T09:58:23.030Z,13.10
2022-10-22T10:00:58.233Z,12.20
2022-10-22T10:03:31.003Z,10.70
2022-10-22T10:06:02.972Z,9.60
2022-10-22T10:08:32.840Z,11.10
2022-10-22T10:13:47.436Z,10.40
2022-10-22T10:16:45.376Z,9.50
2022-10-22T10:19:35.959Z,17.40
2022-10-22T10:22:05.661Z,10.70
2022-10-22T10:24:41.394Z,8.70
2022-10-22T10:27:40.627Z,10.00
2022-10-22T10:30:20.670Z,7.80
2022-10-22T10:33:12.073Z,10.40
2022-10-22T10:36:03.776Z,14.30
2022-10-22T10:38:33.163Z,99.40
2022-10-22T10:41:06.069Z,24.20
2022-10-22T10:43:48.959Z,14.90
2022-10-22T10:46:23.160Z,14.60
2022-10-22T10:48:59.906Z,17.80
2022-10-22T10:51:56.231Z,28.20
2022-10-22T10:54:31.833Z,14.10
2022-10-22T10:57:12.148Z,18.70
2022-10-22T11:00:07.010Z,15.90
2022-10-22T11:03:01.022Z,14.20
2022-10-22T11:06:00.836Z,24.70
2022-10-22T11:08:34.602Z,410.50
2022-10-22T11:11:04.065Z,56.00
2022-10-22T11:13:36.243Z,20.40
2022-10-22T11:16:06.077Z,15.80
2022-10-22T11:18:52.007Z,13.70
2022-10-22T11:21:31.947Z,24.00
2022-10-22T11:24:23.404Z,24.60
2022-10-22T11:27:11.906Z,30.40
2022-10-22T11:29:44.433Z,21.40
2022-10-22T11:32:13.290Z,17.80
2022-10-22T11:34:58.475Z,16.60
2022-10-22T11:37:27.324Z,9.30
2022-10-22T11:39:55.586Z,17.50
2022-10-22T11:42:39.030Z,12.80
2022-10-22T11:45:23.793Z,13.30
2022-10-22T11:47:53.094Z,12.80
2022-10-22T11:50:27.604Z,10.80
2022-10-22T11:53:15.024Z,11.30
2022-10-22T11:55:51.757Z,12.10
2022-10-22T11:58:35.185Z,11.70
2022-10-22T12:01:01.941Z,9.80
2022-10-22T12:06:15.807Z,8.70
2022-10-22T12:08:48.921Z,10.80
2022-10-22T12:11:22.509Z,67.70
2022-10-22T12:13:58.673Z,34.90
2022-10-22T12:16:32.428Z,14.90
2022-10-22T12:19:14.440Z,10.60
2022-10-22T12:21:42.854Z,12.50
2022-10-22T12:24:13.483Z,12.40
2022-10-22T12:26:40.219Z,9.70
2022-10-22T12:31:37.983Z,13.00
2022-10-22T12:34:04.775Z,14.20
2022-10-22T12:39:00.389Z,10.60
2022-10-22T12:41:32.291Z,11.30
2022-10-22T12:44:00.359Z,12.20
2022-10-22T12:46:27.377Z,11.70
2022-10-22T12:48:55.906Z,12.00
2022-10-22T12:51:22.696Z,11.00
2022-10-22T12:56:21.393Z,20.00
2022-10-22T12:58:59.830Z,24.40
2022-10-22T13:01:34.073Z,15.70
2022-10-22T13:04:13.030Z,16.90
2022-10-22T13:06:44.101Z,13.50
2022-10-22T13:09:23.838Z,12.90
2022-10-22T13:12:04.636Z,12.20
2022-10-22T13:14:33.139Z,13.60
2022-10-22T13:17:39.988Z,17.70
2022-10-22T13:20:19.266Z,14.50
2022-10-22T13:23:03.312Z,12.60
2022-10-22T13:25:31.061Z,19.70
2022-10-22T13:28:04.040Z,18.70
2022-10-22T13:30:35.358Z,15.40
2022-10-22T13:33:05.766Z,12.40
2022-10-22T13:35:34.892Z,13.40
2022-10-22T13:38:01.716Z,14.70
2022-10-22T13:42:55.171Z,19.20
2022-10-22T13:47:50.877Z,31.20
2022-10-22T13:50:19.008Z,29.10
2022-10-22T13:52:51.126Z,28.20
2022-10-22T13:55:26.744Z,30.30
2022-10-22T13:58:01.767Z,33.40
2022-10-22T14:00:28.682Z,35.10
2022-10-22T14:02:57.093Z,83.80
2022-10-22T14:05:23.882Z,31.20
2022-10-22T14:10:21.240Z,33.00
2022-10-22T14:12:52.418Z,29.20
2022-10-22T14:15:24.205Z,20.90
2022-10-22T14:17:56.281Z,17.70
2022-10-22T14:20:25.160Z,19.40
2022-10-22T14:22:51.956Z,258.70
2022-10-22T14:27:46.435Z,32.00
2022-10-22T14:33:00.357Z,41.80
2022-10-22T14:35:27.183Z,30.30
2022-10-22T14:40:21.081Z,26.50
2022-10-22T14:42:48.542Z,34.00
2022-10-22T14:45:25.389Z,35.00
2022-10-22T14:47:52.364Z,51.50
2022-10-22T14:50:19.217Z,53.90
2022-10-22T14:52:46.039Z,44.80
2022-10-22T14:55:13.810Z,45.90
2022-10-22T14:57:41.015Z,55.30
2022-10-22T15:00:16.236Z,58.80
2022-10-22T15:02:43.696Z,54.00
2022-10-22T15:05:10.759Z,72.60
2022-10-22T15:07:37.741Z,64.30
2022-10-22T15:10:05.262Z,71.80
2022-10-22T15:12:32.222Z,68.50
2022-10-22T15:14:58.983Z,71.30
2022-10-22T15:19:53.300Z,57.30
2022-10-22T15:22:20.109Z,77.40
2022-10-22T15:27:15.324Z,80.00
2022-10-22T15:32:10.543Z,68.80
2022-10-22T15:34:38.201Z,80.50
2022-10-22T15:37:07.114Z,69.80
2022-10-22T15:39:34.092Z,72.50
2022-10-22T15:42:00.912Z,70.90
2022-10-22T15:49:23.764Z,65.20
2022-10-22T15:51:50.535Z,70.50
2022-10-22T15:56:45.086Z,68.40
2022-10-22T15:59:12.593Z,64.30
2022-10-22T16:01:39.676Z,77.00
2022-10-22T16:04:07.113Z,89.60
2022-10-22T16:06:41.661Z,81.40
2022-10-22T16:09:10.965Z,93.50
2022-10-22T16:11:38.074Z,105.40
2022-10-22T16:14:05.075Z,105.50
2022-10-22T16:16:33.405Z,132.20
2022-10-22T16:19:00.300Z,141.40
2022-10-22T16:21:27.469Z,150.20
2022-10-22T16:23:54.362Z,157.20
2022-10-22T16:26:21.298Z,150.70
2022-10-22T16:28:48.495Z,157.10
2022-10-22T16:31:17.285Z,131.10
2022-10-22T16:33:46.470Z,157.20
2022-10-22T16:36:18.084Z,142.80
2022-10-22T16:38:45.430Z,152.80
2022-10-22T16:41:16.868Z,140.50
2022-10-22T16:43:45.149Z,152.10
2022-10-22T16:46:12.532Z,152.90
2022-10-22T16:48:41.460Z,140.70
2022-10-22T16:51:09.670Z,139.60
2022-10-22T16:53:36.759Z,121.00
2022-10-22T16:56:03.797Z,131.80
2022-10-22T16:58:30.748Z,137.80
2022-10-22T17:00:57.634Z,136.30
2022-10-22T17:03:27.457Z,133.50
2022-10-22T17:05:58.524Z,141.10
2022-10-22T17:08:25.383Z,131.40
2022-10-22T17:13:19.006Z,122.10
2022-10-22T17:18:12.639Z,115.30
2022-10-22T17:23:10.313Z,94.50
2022-10-22T17:28:09.036Z,77.80
2022-10-22T17:30:40.845Z,86.60
2022-10-22T17:33:08.203Z,72.90
2022-10-22T17:35:35.665Z,82.80
2022-10-22T17:38:02.514Z,82.70
2022-10-22T17:42:57.822Z,111.70
2022-10-22T17:47:52.201Z,136.70
2022-10-22T17:50:19.702Z,112.30
2022-10-22T17:52:46.442Z,106.70
2022-10-22T17:55:13.588Z,100.30
2022-10-22T17:57:40.334Z,97.60
2022-10-22T18:00:07.697Z,106.80
2022-10-22T18:02:34.872Z,91.10
2022-10-22T18:05:01.605Z,93.10
2022-10-22T18:09:55.091Z,81.10
2022-10-22T18:12:23.628Z,84.60
2022-10-22T18:14:51.084Z,74.60
2022-10-22T18:17:18.367Z,70.40
2022-10-22T18:22:12.034Z,62.40
2022-10-22T18:27:05.894Z,56.30
2022-10-22T18:29:32.787Z,72.40
2022-10-22T18:31:59.690Z,68.20
2022-10-22T18:34:26.566Z,60.30
2022-10-22T18:39:20.380Z,53.60
2022-10-22T18:41:47.365Z,55.90
2022-10-22T18:44:14.263Z,63.90
2022-10-22T18:49:07.766Z,45.60
2022-10-22T18:54:18.205Z,42.60
2022-10-22T18:56:49.083Z,47.40
2022-10-22T18:59:24.357Z,43.00
2022-10-22T19:01:54.914Z,47.10
2022-10-22T19:04:21.886Z,43.00
2022-10-22T19:06:48.640Z,36.90
2022-10-22T19:11:43.782Z,45.80
2022-10-22T19:14:10.608Z,52.70
2022-10-22T19:19:05.812Z,64.60
2022-10-22T19:21:32.718Z,86.10
2022-10-22T19:23:59.964Z,83.80
2022-10-22T19:26:27.607Z,93.20
2022-10-22T19:28:54.901Z,100.50
2022-10-22T19:31:22.924Z,93.80
2022-10-22T19:33:50.487Z,81.80
2022-10-22T19:36:21.064Z,78.60
2022-10-22T19:38:48.768Z,76.40
2022-10-22T19:41:17.181Z,78.30
2022-10-22T19:43:44.676Z,83.50
2022-10-22T19:46:11.738Z,76.30
2022-10-22T19:48:38.789Z,67.20
2022-10-22T19:51:08.480Z,65.30
2022-10-22T19:53:36.186Z,65.40
2022-10-22T19:56:05.191Z,64.00
2022-10-22T19:58:31.992Z,65.30
2022-10-22T20:03:30.136Z,44.70
2022-10-22T20:05:56.998Z,40.50
2022-10-22T20:08:23.855Z,41.70
2022-10-22T20:13:18.426Z,47.80
2022-10-22T20:15:49.304Z,50.10
2022-10-22T20:18:16.184Z,41.80
2022-10-22T20:20:43.037Z,47.30
2022-10-22T20:25:45.275Z,49.20
2022-10-22T20:28:13.512Z,55.00
2022-10-22T20:30:46.265Z,47.10
2022-10-22T20:33:14.604Z,43.50
2022-10-22T20:35:41.453Z,41.40
2022-10-22T20:40:35.560Z,36.50
2022-10-22T20:43:02.473Z,33.10
2022-10-22T20:45:29.275Z,34.60
2022-10-22T20:50:31.348Z,32.90
2022-10-22T20:52:58.561Z,38.20
2022-10-22T20:55:25.387Z,31.60
2022-10-22T21:00:18.868Z,38.00
2022-10-22T21:05:12.271Z,36.00
2022-10-22T21:10:06.478Z,40.20
2022-10-22T21:12:33.224Z,34.00
2022-10-22T21:17:26.716Z,41.20
2022-10-22T21:22:20.074Z,34.80
2022-10-22T21:24:46.892Z,39.00
2022-10-22T21:27:13.699Z,38.40
2022-10-22T21:32:07.098Z,31.00
2022-10-22T21:37:05.843Z,33.80
2022-10-22T21:39:32.565Z,29.00
2022-10-22T21:44:25.944Z,33.30
2022-10-22T21:46:52.711Z,34.20
2022-10-22T21:51:46.037Z,37.10
2022-10-22T21:54:12.823Z,34.90
2022-10-22T21:59:06.598Z,36.50
2022-10-22T22:01:33.401Z,34.40
2022-10-22T22:07:33.296Z,36.30
2022-10-22T22:10:00.052Z,36.70
2022-10-22T22:14:53.462Z,33.30
2022-10-22T22:17:20.272Z,35.10
2022-10-22T22:22:13.634Z,31.00
2022-10-22T22:27:07.339Z,35.60
2022-10-22T22:29:34.405Z,29.00
2022-10-22T22:32:01.137Z,36.30
2022-10-22T22:34:27.861Z,32.10
2022-10-22T22:39:22.758Z,32.00
2022-10-22T22:41:49.722Z,36.70
2022-10-22T22:44:16.577Z,34.80
2022-10-22T22:49:10.130Z,28.00
2022-10-22T22:51:36.888Z,32.80
2022-10-22T22:56:31.309Z,26.80
2022-10-22T22:58:58.407Z,32.30
2022-10-22T23:01:29.111Z,33.20
2022-10-22T23:04:04.257Z,26.10
2022-10-22T23:06:33.245Z,26.90
2022-10-22T23:09:00.154Z,33.50
2022-10-22T23:11:27.346Z,26.90
2022-10-22T23:13:55.862Z,25.00
2022-10-22T23:16:23.480Z,28.20
2022-10-22T23:18:50.310Z,30.00
2022-10-22T23:23:49.637Z,26.60
2022-10-22T23:26:21.700Z,23.70
2022-10-22T23:28:48.423Z,27.40
2022-10-22T23:31:16.366Z,28.70
2022-10-22T23:33:43.162Z,28.70
2022-10-22T23:38:37.672Z,27.70
2022-10-22T23:41:04.812Z,23.90
2022-10-22T23:43:31.786Z,22.50
2022-10-22T23:45:58.549Z,26.00
2022-10-22T23:53:23.661Z,25.50
2022-10-22T23:58:17.405Z,26.10
